sensor_id;sensor_type;location;lat;lon;timestamp;P1;durP1;ratioP1;P2;durP2;ratioP2
45392;SDS011;31129;44.810;10.334;2022-12-07T16:20:17;107.88;;;44.72;;
45392;SDS011;31129;44.810;10.334;2022-12-07T16:22:43;95.00;;;45.47;;
45392;SDS011;31129;44.810;10.334;2022-12-07T16:25:08;102.55;;;48.08;;
45392;SDS011;31129;44.810;10.334;2022-12-07T16:27:34;94.22;;;46.15;;
45392;SDS011;31129;44.810;10.334;2022-12-07T16:30:00;95.85;;;46.30;;
45392;SDS011;31129;44.810;10.334;2022-12-07T16:32:25;108.97;;;46.67;;
45392;SDS011;31129;44.810;10.334;2022-12-07T16:34:51;105.13;;;45.55;;
45392;SDS011;31129;44.810;10.334;2022-12-07T16:37:16;96.03;;;45.45;;
45392;SDS011;31129;44.810;10.334;2022-12-07T16:39:41;103.63;;;48.63;;
45392;SDS011;31129;44.810;10.334;2022-12-07T16:42:07;91.50;;;44.53;;
45392;SDS011;31129;44.810;10.334;2022-12-07T16:44:32;101.18;;;47.45;;
45392;SDS011;31129;44.810;10.334;2022-12-07T16:46:58;102.30;;;48.80;;
45392;SDS011;31129;44.810;10.334;2022-12-07T16:49:25;101.80;;;46.47;;
45392;SDS011;31129;44.810;10.334;2022-12-07T16:51:50;103.45;;;48.85;;
45392;SDS011;31129;44.810;10.334;2022-12-07T16:54:16;104.00;;;47.90;;
45392;SDS011;31129;44.810;10.334;2022-12-07T16:56:42;104.40;;;46.35;;
45392;SDS011;31129;44.810;10.334;2022-12-07T16:59:08;102.18;;;45.22;;
45392;SDS011;31129;44.810;10.334;2022-12-07T17:01:34;103.78;;;45.80;;
45392;SDS011;31129;44.810;10.334;2022-12-07T17:04:01;95.35;;;47.25;;
45392;SDS011;31129;44.810;10.334;2022-12-07T17:06:28;93.85;;;43.22;;
45392;SDS011;31129;44.810;10.334;2022-12-07T17:08:57;90.13;;;42.80;;
45392;SDS011;31129;44.810;10.334;2022-12-07T17:11:27;93.40;;;44.35;;
45392;SDS011;31129;44.810;10.334;2022-12-07T17:13:55;94.82;;;44.50;;
45392;SDS011;31129;44.810;10.334;2022-12-07T17:16:40;95.45;;;45.33;;
45392;SDS011;31129;44.810;10.334;2022-12-07T17:19:07;102.25;;;44.08;;
45392;SDS011;31129;44.810;10.334;2022-12-07T17:21:35;91.10;;;44.25;;
45392;SDS011;31129;44.810;10.334;2022-12-07T17:24:02;97.18;;;44.53;;
45392;SDS011;31129;44.810;10.334;2022-12-07T17:26:29;96.80;;;44.72;;
45392;SDS011;31129;44.810;10.334;2022-12-07T17:28:55;95.57;;;42.63;;
45392;SDS011;31129;44.810;10.334;2022-12-07T17:31:21;94.55;;;43.95;;
45392;SDS011;31129;44.810;10.334;2022-12-07T17:33:48;95.70;;;44.30;;
45392;SDS011;31129;44.810;10.334;2022-12-07T17:38:44;97.68;;;47.80;;
45392;SDS011;31129;44.810;10.334;2022-12-07T17:41:11;97.40;;;46.17;;
45392;SDS011;31129;44.810;10.334;2022-12-07T17:43:59;92.05;;;43.22;;
45392;SDS011;31129;44.810;10.334;2022-12-07T17:46:25;97.07;;;44.65;;
45392;SDS011;31129;44.810;10.334;2022-12-07T17:48:56;92.88;;;43.83;;
45392;SDS011;31129;44.810;10.334;2022-12-07T17:51:22;94.78;;;44.22;;
45392;SDS011;31129;44.810;10.334;2022-12-07T17:54:07;93.00;;;43.97;;
45392;SDS011;31129;44.810;10.334;2022-12-07T17:56:33;90.28;;;43.20;;
45392;SDS011;31129;44.810;10.334;2022-12-07T17:59:00;88.90;;;42.17;;
45392;SDS011;31129;44.810;10.334;2022-12-07T18:01:25;94.30;;;42.90;;
45392;SDS011;31129;44.810;10.334;2022-12-07T18:03:54;84.55;;;40.53;;
45392;SDS011;31129;44.810;10.334;2022-12-07T18:06:20;97.72;;;44.78;;
45392;SDS011;31129;44.810;10.334;2022-12-07T18:08:45;97.68;;;43.95;;
45392;SDS011;31129;44.810;10.334;2022-12-07T18:11:11;101.45;;;46.15;;
45392;SDS011;31129;44.810;10.334;2022-12-07T18:13:37;98.45;;;45.78;;
45392;SDS011;31129;44.810;10.334;2022-12-07T18:18:37;95.28;;;42.70;;
45392;SDS011;31129;44.810;10.334;2022-12-07T18:21:04;96.63;;;43.70;;
45392;SDS011;31129;44.810;10.334;2022-12-07T18:23:32;92.85;;;44.90;;
45392;SDS011;31129;44.810;10.334;2022-12-07T18:25:58;90.72;;;44.50;;
45392;SDS011;31129;44.810;10.334;2022-12-07T18:30:53;93.25;;;42.40;;
45392;SDS011;31129;44.810;10.334;2022-12-07T18:33:21;89.03;;;42.53;;
45392;SDS011;31129;44.810;10.334;2022-12-07T18:35:48;93.30;;;44.22;;
45392;SDS011;31129;44.810;10.334;2022-12-07T18:38:18;94.22;;;43.78;;
45392;SDS011;31129;44.810;10.334;2022-12-07T18:40:44;103.95;;;43.50;;
45392;SDS011;31129;44.810;10.334;2022-12-07T18:43:13;98.47;;;46.08;;
45392;SDS011;31129;44.810;10.334;2022-12-07T18:45:40;90.38;;;43.80;;
45392;SDS011;31129;44.810;10.334;2022-12-07T18:48:07;108.32;;;46.05;;
45392;SDS011;31129;44.810;10.334;2022-12-07T18:50:33;96.10;;;44.50;;
45392;SDS011;31129;44.810;10.334;2022-12-07T18:52:59;94.65;;;45.25;;
45392;SDS011;31129;44.810;10.334;2022-12-07T18:55:26;92.40;;;43.85;;
45392;SDS011;31129;44.810;10.334;2022-12-07T18:57:56;98.95;;;43.72;;
45392;SDS011;31129;44.810;10.334;2022-12-07T19:00:23;97.43;;;44.78;;
45392;SDS011;31129;44.810;10.334;2022-12-07T19:02:51;91.95;;;44.35;;
45392;SDS011;31129;44.810;10.334;2022-12-07T19:05:18;83.85;;;40.53;;
45392;SDS011;31129;44.810;10.334;2022-12-07T19:07:44;95.00;;;44.53;;
45392;SDS011;31129;44.810;10.334;2022-12-07T19:10:10;97.93;;;45.65;;
45392;SDS011;31129;44.810;10.334;2022-12-07T19:12:37;96.38;;;46.50;;
45392;SDS011;31129;44.810;10.334;2022-12-07T19:15:03;96.32;;;44.58;;
45392;SDS011;31129;44.810;10.334;2022-12-07T19:17:30;104.05;;;47.00;;
45392;SDS011;31129;44.810;10.334;2022-12-07T19:19:55;107.05;;;47.80;;
45392;SDS011;31129;44.810;10.334;2022-12-07T19:22:21;102.13;;;46.65;;
45392;SDS011;31129;44.810;10.334;2022-12-07T19:24:48;97.75;;;46.10;;
45392;SDS011;31129;44.810;10.334;2022-12-07T19:27:16;105.47;;;46.38;;
45392;SDS011;31129;44.810;10.334;2022-12-07T19:29:43;106.28;;;46.40;;
45392;SDS011;31129;44.810;10.334;2022-12-07T19:32:09;114.10;;;48.40;;
45392;SDS011;31129;44.810;10.334;2022-12-07T19:34:44;112.13;;;48.33;;
45392;SDS011;31129;44.810;10.334;2022-12-07T19:37:12;103.32;;;46.40;;
45392;SDS011;31129;44.810;10.334;2022-12-07T19:39:38;108.78;;;46.30;;
45392;SDS011;31129;44.810;10.334;2022-12-07T19:42:05;119.97;;;47.45;;
45392;SDS011;31129;44.810;10.334;2022-12-07T19:44:31;102.47;;;45.78;;
45392;SDS011;31129;44.810;10.334;2022-12-07T19:46:58;105.10;;;43.20;;
45392;SDS011;31129;44.810;10.334;2022-12-07T19:49:26;108.00;;;46.17;;
45392;SDS011;31129;44.810;10.334;2022-12-07T19:51:57;112.65;;;45.67;;
45392;SDS011;31129;44.810;10.334;2022-12-07T19:54:29;111.13;;;44.00;;
45392;SDS011;31129;44.810;10.334;2022-12-07T19:56:55;104.50;;;47.15;;
45392;SDS011;31129;44.810;10.334;2022-12-07T19:59:22;107.30;;;45.42;;
45392;SDS011;31129;44.810;10.334;2022-12-07T20:01:49;114.00;;;47.33;;
45392;SDS011;31129;44.810;10.334;2022-12-07T20:04:16;118.10;;;46.55;;
45392;SDS011;31129;44.810;10.334;2022-12-07T20:06:50;105.28;;;47.30;;
45392;SDS011;31129;44.810;10.334;2022-12-07T20:09:17;117.68;;;48.60;;
45392;SDS011;31129;44.810;10.334;2022-12-07T20:11:43;108.65;;;46.45;;
45392;SDS011;31129;44.810;10.334;2022-12-07T20:14:28;110.30;;;47.22;;
45392;SDS011;31129;44.810;10.334;2022-12-07T20:16:54;126.07;;;49.83;;
45392;SDS011;31129;44.810;10.334;2022-12-07T20:19:20;124.28;;;51.20;;
45392;SDS011;31129;44.810;10.334;2022-12-07T20:21:45;113.47;;;48.13;;
45392;SDS011;31129;44.810;10.334;2022-12-07T20:24:12;110.85;;;47.55;;
45392;SDS011;31129;44.810;10.334;2022-12-07T20:26:41;104.72;;;47.20;;
45392;SDS011;31129;44.810;10.334;2022-12-07T20:29:08;104.97;;;45.05;;
45392;SDS011;31129;44.810;10.334;2022-12-07T20:31:37;106.32;;;46.47;;
45392;SDS011;31129;44.810;10.334;2022-12-07T20:34:03;103.35;;;45.72;;
45392;SDS011;31129;44.810;10.334;2022-12-07T20:36:28;104.38;;;46.42;;
45392;SDS011;31129;44.810;10.334;2022-12-07T20:38:54;114.90;;;47.22;;
45392;SDS011;31129;44.810;10.334;2022-12-07T20:41:20;116.35;;;48.67;;
45392;SDS011;31129;44.810;10.334;2022-12-07T20:44:04;107.97;;;48.05;;
45392;SDS011;31129;44.810;10.334;2022-12-07T20:46:30;107.25;;;46.47;;
45392;SDS011;31129;44.810;10.334;2022-12-07T20:48:59;109.70;;;45.97;;
45392;SDS011;31129;44.810;10.334;2022-12-07T20:51:25;120.95;;;48.20;;
45392;SDS011;31129;44.810;10.334;2022-12-07T20:53:52;110.47;;;48.15;;
45392;SDS011;31129;44.810;10.334;2022-12-07T20:56:28;109.05;;;48.33;;
45392;SDS011;31129;44.810;10.334;2022-12-07T20:58:56;120.70;;;50.65;;
45392;SDS011;31129;44.810;10.334;2022-12-07T21:01:23;128.82;;;47.72;;
45392;SDS011;31129;44.810;10.334;2022-12-07T21:03:52;125.95;;;51.15;;
45392;SDS011;31129;44.810;10.334;2022-12-07T21:06:19;130.88;;;50.45;;
45392;SDS011;31129;44.810;10.334;2022-12-07T21:08:45;122.85;;;52.50;;
45392;SDS011;31129;44.810;10.334;2022-12-07T21:11:15;138.52;;;52.92;;
45392;SDS011;31129;44.810;10.334;2022-12-07T21:13:45;126.18;;;52.75;;
45392;SDS011;31129;44.810;10.334;2022-12-07T21:16:12;157.63;;;57.92;;
45392;SDS011;31129;44.810;10.334;2022-12-07T21:18:41;144.63;;;53.92;;
45392;SDS011;31129;44.810;10.334;2022-12-07T21:21:09;134.75;;;52.30;;
45392;SDS011;31129;44.810;10.334;2022-12-07T21:23:36;128.60;;;52.05;;
45392;SDS011;31129;44.810;10.334;2022-12-07T21:26:12;129.25;;;52.28;;
45392;SDS011;31129;44.810;10.334;2022-12-07T21:28:39;132.80;;;50.75;;
45392;SDS011;31129;44.810;10.334;2022-12-07T21:31:05;124.55;;;50.85;;
45392;SDS011;31129;44.810;10.334;2022-12-07T21:33:31;139.65;;;53.97;;
45392;SDS011;31129;44.810;10.334;2022-12-07T21:35:57;136.73;;;53.25;;
45392;SDS011;31129;44.810;10.334;2022-12-07T21:38:22;125.70;;;49.67;;
45392;SDS011;31129;44.810;10.334;2022-12-07T21:40:48;136.57;;;55.05;;
45392;SDS011;31129;44.810;10.334;2022-12-07T21:43:16;150.82;;;53.17;;
45392;SDS011;31129;44.810;10.334;2022-12-07T21:45:41;141.05;;;53.67;;
45392;SDS011;31129;44.810;10.334;2022-12-07T21:48:07;157.88;;;56.33;;
45392;SDS011;31129;44.810;10.334;2022-12-07T21:50:33;139.20;;;52.90;;
45392;SDS011;31129;44.810;10.334;2022-12-07T21:55:27;149.43;;;55.17;;
45392;SDS011;31129;44.810;10.334;2022-12-07T21:57:53;147.00;;;54.45;;
45392;SDS011;31129;44.810;10.334;2022-12-07T22:00:18;141.77;;;53.58;;
45392;SDS011;31129;44.810;10.334;2022-12-07T22:02:49;158.80;;;54.90;;
45392;SDS011;31129;44.810;10.334;2022-12-07T22:05:15;140.10;;;54.25;;
45392;SDS011;31129;44.810;10.334;2022-12-07T22:07:40;139.50;;;55.50;;
45392;SDS011;31129;44.810;10.334;2022-12-07T22:10:06;140.77;;;53.67;;
45392;SDS011;31129;44.810;10.334;2022-12-07T22:12:32;141.10;;;54.08;;
45392;SDS011;31129;44.810;10.334;2022-12-07T22:14:57;130.20;;;52.85;;
45392;SDS011;31129;44.810;10.334;2022-12-07T22:17:34;138.93;;;55.47;;
45392;SDS011;31129;44.810;10.334;2022-12-07T22:19:59;127.97;;;52.35;;
45392;SDS011;31129;44.810;10.334;2022-12-07T22:22:25;131.52;;;62.53;;
45392;SDS011;31129;44.810;10.334;2022-12-07T22:24:54;127.15;;;61.35;;
45392;SDS011;31129;44.810;10.334;2022-12-07T22:27:19;125.68;;;59.03;;
45392;SDS011;31129;44.810;10.334;2022-12-07T22:29:45;124.75;;;54.08;;
45392;SDS011;31129;44.810;10.334;2022-12-07T22:32:10;122.97;;;55.38;;
45392;SDS011;31129;44.810;10.334;2022-12-07T22:34:36;125.97;;;51.03;;
45392;SDS011;31129;44.810;10.334;2022-12-07T22:37:01;117.70;;;52.30;;
45392;SDS011;31129;44.810;10.334;2022-12-07T22:39:27;115.28;;;52.08;;
45392;SDS011;31129;44.810;10.334;2022-12-07T22:41:53;113.43;;;51.63;;
45392;SDS011;31129;44.810;10.334;2022-12-07T22:44:18;112.28;;;51.40;;
45392;SDS011;31129;44.810;10.334;2022-12-07T22:46:44;115.65;;;52.95;;
45392;SDS011;31129;44.810;10.334;2022-12-07T22:49:13;106.75;;;48.95;;
45392;SDS011;31129;44.810;10.334;2022-12-07T22:51:39;120.38;;;51.70;;
45392;SDS011;31129;44.810;10.334;2022-12-07T22:54:10;113.70;;;50.17;;
45392;SDS011;31129;44.810;10.334;2022-12-07T22:56:39;113.72;;;52.35;;
45392;SDS011;31129;44.810;10.334;2022-12-07T22:59:05;125.50;;;53.38;;
45392;SDS011;31129;44.810;10.334;2022-12-07T23:01:31;125.18;;;53.10;;
45392;SDS011;31129;44.810;10.334;2022-12-07T23:03:56;120.32;;;54.35;;
45392;SDS011;31129;44.810;10.334;2022-12-07T23:06:23;121.03;;;54.58;;
45392;SDS011;31129;44.810;10.334;2022-12-07T23:08:50;119.35;;;52.78;;
45392;SDS011;31129;44.810;10.334;2022-12-07T23:11:21;119.28;;;52.33;;
45392;SDS011;31129;44.810;10.334;2022-12-07T23:14:17;123.40;;;53.13;;
45392;SDS011;31129;44.810;10.334;2022-12-07T23:16:45;120.00;;;53.42;;
45392;SDS011;31129;44.810;10.334;2022-12-07T23:19:10;116.93;;;53.45;;
45392;SDS011;31129;44.810;10.334;2022-12-07T23:21:36;117.35;;;53.80;;
45392;SDS011;31129;44.810;10.334;2022-12-07T23:24:02;122.07;;;54.47;;
45392;SDS011;31129;44.810;10.334;2022-12-07T23:26:27;119.78;;;55.88;;
45392;SDS011;31129;44.810;10.334;2022-12-07T23:28:53;119.18;;;54.60;;
45392;SDS011;31129;44.810;10.334;2022-12-07T23:31:20;118.53;;;52.88;;
45392;SDS011;31129;44.810;10.334;2022-12-07T23:33:45;113.90;;;53.67;;
45392;SDS011;31129;44.810;10.334;2022-12-07T23:36:13;120.53;;;54.85;;
45392;SDS011;31129;44.810;10.334;2022-12-07T23:38:43;118.38;;;55.15;;
45392;SDS011;31129;44.810;10.334;2022-12-07T23:41:11;125.57;;;55.25;;
45392;SDS011;31129;44.810;10.334;2022-12-07T23:43:39;128.27;;;56.65;;
45392;SDS011;31129;44.810;10.334;2022-12-07T23:46:06;126.93;;;57.13;;
45392;SDS011;31129;44.810;10.334;2022-12-07T23:48:37;135.02;;;58.85;;
45392;SDS011;31129;44.810;10.334;2022-12-07T23:51:03;137.25;;;61.50;;
45392;SDS011;31129;44.810;10.334;2022-12-07T23:53:31;128.48;;;56.95;;
45392;SDS011;31129;44.810;10.334;2022-12-07T23:56:01;131.20;;;59.38;;
45392;SDS011;31129;44.810;10.334;2022-12-07T23:58:27;140.63;;;59.28;;
